sensor_id;sensor_type;location;lat;lon;timestamp;P1;durP1;ratioP1;P2;durP2;ratioP2
61527;SDS011;47395;42.032;-8.634;2022-09-09T00:01:01;13.38;;;6.63;;
61527;SDS011;47395;42.032;-8.634;2022-09-09T00:03:27;6.85;;;6.25;;
61527;SDS011;47395;42.032;-8.634;2022-09-09T00:05:50;7.85;;;5.72;;
61527;SDS011;47395;42.032;-8.634;2022-09-09T00:08:00;6.57;;;5.97;;
61527;SDS011;47395;42.032;-8.634;2022-09-09T00:10:25;7.40;;;6.68;;
61527;SDS011;47395;42.032;-8.634;2022-09-09T00:12:55;8.30;;;6.72;;
61527;SDS011;47395;42.032;-8.634;2022-09-09T00:15:04;7.75;;;6.65;;
61527;SDS011;47395;42.032;-8.634;2022-09-09T00:18:38;6.20;;;5.57;;
61527;SDS011;47395;42.032;-8.634;2022-09-09T00:19:49;3.25;;;3.15;;
61527;SDS011;47395;42.032;-8.634;2022-09-09T00:22:15;2.50;;;2.33;;
61527;SDS011;47395;42.032;-8.634;2022-09-09T00:24:27;1.75;;;1.75;;
61527;SDS011;47395;42.032;-8.634;2022-09-09T00:26:40;1.90;;;1.83;;
61527;SDS011;47395;42.032;-8.634;2022-09-09T00:29:47;2.78;;;2.30;;
61527;SDS011;47395;42.032;-8.634;2022-09-09T00:31:28;5.50;;;5.10;;
61527;SDS011;47395;42.032;-8.634;2022-09-09T00:33:30;6.93;;;6.53;;
61527;SDS011;47395;42.032;-8.634;2022-09-09T00:35:33;6.70;;;6.10;;
61527;SDS011;47395;42.032;-8.634;2022-09-09T00:37:37;6.45;;;5.93;;
61527;SDS011;47395;42.032;-8.634;2022-09-09T00:39:42;6.60;;;5.95;;
61527;SDS011;47395;42.032;-8.634;2022-09-09T00:42:03;7.13;;;6.50;;
61527;SDS011;47395;42.032;-8.634;2022-09-09T00:44:25;6.67;;;6.07;;
61527;SDS011;47395;42.032;-8.634;2022-09-09T00:47:53;6.57;;;6.05;;
61527;SDS011;47395;42.032;-8.634;2022-09-09T00:53:19;5.90;;;5.50;;
61527;SDS011;47395;42.032;-8.634;2022-09-09T00:54:44;7.13;;;5.40;;
61527;SDS011;47395;42.032;-8.634;2022-09-09T00:57:29;7.32;;;6.30;;
61527;SDS011;47395;42.032;-8.634;2022-09-09T00:59:37;6.93;;;6.32;;
61527;SDS011;47395;42.032;-8.634;2022-09-09T01:01:49;8.75;;;6.38;;
61527;SDS011;47395;42.032;-8.634;2022-09-09T01:03:55;7.07;;;6.47;;
61527;SDS011;47395;42.032;-8.634;2022-09-09T01:06:20;7.30;;;5.90;;
61527;SDS011;47395;42.032;-8.634;2022-09-09T01:09:32;6.65;;;5.90;;
61527;SDS011;47395;42.032;-8.634;2022-09-09T01:11:07;6.90;;;6.40;;
61527;SDS011;47395;42.032;-8.634;2022-09-09T01:13:19;9.50;;;6.22;;
61527;SDS011;47395;42.032;-8.634;2022-09-09T01:15:29;6.35;;;5.78;;
61527;SDS011;47395;42.032;-8.634;2022-09-09T01:18:16;6.45;;;6.05;;
61527;SDS011;47395;42.032;-8.634;2022-09-09T01:20:13;7.07;;;6.47;;
61527;SDS011;47395;42.032;-8.634;2022-09-09T01:28:25;7.32;;;6.68;;
61527;SDS011;47395;42.032;-8.634;2022-09-09T01:30:37;10.23;;;6.88;;
61527;SDS011;47395;42.032;-8.634;2022-09-09T01:32:42;7.60;;;6.70;;
61527;SDS011;47395;42.032;-8.634;2022-09-09T01:34:47;8.18;;;6.80;;
61527;SDS011;47395;42.032;-8.634;2022-09-09T01:36:53;7.90;;;7.20;;
61527;SDS011;47395;42.032;-8.634;2022-09-09T01:39:06;6.97;;;6.47;;
61527;SDS011;47395;42.032;-8.634;2022-09-09T01:41:07;6.70;;;6.30;;
61527;SDS011;47395;42.032;-8.634;2022-09-09T01:43:20;7.70;;;6.90;;
61527;SDS011;47395;42.032;-8.634;2022-09-09T01:45:23;6.97;;;6.40;;
61527;SDS011;47395;42.032;-8.634;2022-09-09T01:47:24;9.82;;;6.80;;
61527;SDS011;47395;42.032;-8.634;2022-09-09T01:49:39;7.65;;;6.85;;
61527;SDS011;47395;42.032;-8.634;2022-09-09T01:51:51;8.95;;;7.28;;
61527;SDS011;47395;42.032;-8.634;2022-09-09T01:54:00;7.60;;;7.00;;
61527;SDS011;47395;42.032;-8.634;2022-09-09T02:04:36;7.30;;;6.60;;
61527;SDS011;47395;42.032;-8.634;2022-09-09T02:06:51;7.45;;;6.75;;
61527;SDS011;47395;42.032;-8.634;2022-09-09T02:09:01;6.65;;;6.10;;
61527;SDS011;47395;42.032;-8.634;2022-09-09T02:13:48;5.85;;;5.45;;
61527;SDS011;47395;42.032;-8.634;2022-09-09T02:18:50;6.68;;;6.28;;
61527;SDS011;47395;42.032;-8.634;2022-09-09T02:21:04;7.30;;;6.70;;
61527;SDS011;47395;42.032;-8.634;2022-09-09T02:23:07;8.23;;;6.43;;
61527;SDS011;47395;42.032;-8.634;2022-09-09T02:25:12;7.38;;;6.03;;
61527;SDS011;47395;42.032;-8.634;2022-09-09T02:27:18;6.50;;;6.00;;
61527;SDS011;47395;42.032;-8.634;2022-09-09T02:29:28;7.28;;;5.70;;
61527;SDS011;47395;42.032;-8.634;2022-09-09T02:31:36;5.75;;;5.25;;
61527;SDS011;47395;42.032;-8.634;2022-09-09T02:33:44;5.57;;;5.18;;
61527;SDS011;47395;42.032;-8.634;2022-09-09T02:35:51;5.75;;;5.20;;
61527;SDS011;47395;42.032;-8.634;2022-09-09T02:37:58;6.10;;;5.60;;
61527;SDS011;47395;42.032;-8.634;2022-09-09T02:40:05;6.40;;;5.70;;
61527;SDS011;47395;42.032;-8.634;2022-09-09T02:42:09;6.70;;;6.05;;
61527;SDS011;47395;42.032;-8.634;2022-09-09T02:44:11;5.30;;;4.90;;
61527;SDS011;47395;42.032;-8.634;2022-09-09T02:46:27;5.22;;;4.93;;
61527;SDS011;47395;42.032;-8.634;2022-09-09T02:48:42;7.03;;;5.00;;
61527;SDS011;47395;42.032;-8.634;2022-09-09T02:50:51;4.90;;;4.70;;
61527;SDS011;47395;42.032;-8.634;2022-09-09T02:53:57;4.97;;;4.45;;
61527;SDS011;47395;42.032;-8.634;2022-09-09T02:55:50;6.10;;;5.57;;
61527;SDS011;47395;42.032;-8.634;2022-09-09T02:57:58;8.50;;;6.13;;
61527;SDS011;47395;42.032;-8.634;2022-09-09T03:00:02;6.07;;;5.68;;
61527;SDS011;47395;42.032;-8.634;2022-09-09T03:02:06;5.43;;;5.07;;
61527;SDS011;47395;42.032;-8.634;2022-09-09T03:04:08;5.60;;;5.20;;
61527;SDS011;47395;42.032;-8.634;2022-09-09T03:06:10;5.50;;;5.00;;
61527;SDS011;47395;42.032;-8.634;2022-09-09T03:08:13;5.38;;;5.00;;
61527;SDS011;47395;42.032;-8.634;2022-09-09T03:10:15;5.18;;;4.90;;
61527;SDS011;47395;42.032;-8.634;2022-09-09T03:12:16;6.10;;;5.32;;
61527;SDS011;47395;42.032;-8.634;2022-09-09T03:14:17;5.57;;;4.97;;
61527;SDS011;47395;42.032;-8.634;2022-09-09T03:16:22;5.32;;;5.03;;
61527;SDS011;47395;42.032;-8.634;2022-09-09T03:18:25;5.10;;;4.80;;
61527;SDS011;47395;42.032;-8.634;2022-09-09T03:20:28;5.07;;;4.78;;
61527;SDS011;47395;42.032;-8.634;2022-09-09T03:22:31;5.18;;;4.88;;
61527;SDS011;47395;42.032;-8.634;2022-09-09T03:24:33;5.30;;;4.80;;
61527;SDS011;47395;42.032;-8.634;2022-09-09T03:26:37;5.18;;;4.95;;
61527;SDS011;47395;42.032;-8.634;2022-09-09T03:28:41;4.85;;;4.53;;
61527;SDS011;47395;42.032;-8.634;2022-09-09T03:30:42;5.07;;;4.68;;
61527;SDS011;47395;42.032;-8.634;2022-09-09T03:32:43;5.15;;;4.85;;
61527;SDS011;47395;42.032;-8.634;2022-09-09T03:34:44;5.47;;;4.97;;
61527;SDS011;47395;42.032;-8.634;2022-09-09T03:36:49;7.65;;;4.63;;
61527;SDS011;47395;42.032;-8.634;2022-09-09T03:38:52;6.22;;;4.93;;
61527;SDS011;47395;42.032;-8.634;2022-09-09T03:40:56;4.55;;;4.25;;
61527;SDS011;47395;42.032;-8.634;2022-09-09T03:43:01;8.05;;;4.45;;
61527;SDS011;47395;42.032;-8.634;2022-09-09T03:45:03;5.35;;;4.25;;
61527;SDS011;47395;42.032;-8.634;2022-09-09T03:47:10;4.85;;;4.45;;
61527;SDS011;47395;42.032;-8.634;2022-09-09T03:49:11;4.68;;;4.00;;
61527;SDS011;47395;42.032;-8.634;2022-09-09T03:51:12;4.55;;;4.25;;
61527;SDS011;47395;42.032;-8.634;2022-09-09T03:53:15;4.68;;;4.30;;
61527;SDS011;47395;42.032;-8.634;2022-09-09T03:55:18;5.78;;;5.22;;
61527;SDS011;47395;42.032;-8.634;2022-09-09T03:57:19;5.03;;;4.55;;
61527;SDS011;47395;42.032;-8.634;2022-09-09T03:59:21;6.53;;;4.80;;
61527;SDS011;47395;42.032;-8.634;2022-09-09T04:03:47;4.60;;;4.30;;
61527;SDS011;47395;42.032;-8.634;2022-09-09T04:05:48;4.60;;;4.30;;
61527;SDS011;47395;42.032;-8.634;2022-09-09T04:07:49;4.53;;;4.10;;
61527;SDS011;47395;42.032;-8.634;2022-09-09T04:09:51;4.47;;;4.07;;
61527;SDS011;47395;42.032;-8.634;2022-09-09T04:11:53;4.03;;;3.83;;
61527;SDS011;47395;42.032;-8.634;2022-09-09T04:13:55;4.38;;;3.97;;
61527;SDS011;47395;42.032;-8.634;2022-09-09T04:15:57;4.28;;;3.90;;
61527;SDS011;47395;42.032;-8.634;2022-09-09T04:17:59;4.45;;;4.05;;
61527;SDS011;47395;42.032;-8.634;2022-09-09T04:20:01;4.32;;;3.92;;
61527;SDS011;47395;42.032;-8.634;2022-09-09T04:22:03;3.97;;;3.70;;
61527;SDS011;47395;42.032;-8.634;2022-09-09T04:24:04;4.45;;;4.00;;
61527;SDS011;47395;42.032;-8.634;2022-09-09T04:26:05;4.13;;;3.97;;
61527;SDS011;47395;42.032;-8.634;2022-09-09T04:28:07;4.97;;;4.38;;
61527;SDS011;47395;42.032;-8.634;2022-09-09T04:30:09;10.55;;;5.03;;
61527;SDS011;47395;42.032;-8.634;2022-09-09T04:32:11;8.63;;;5.88;;
61527;SDS011;47395;42.032;-8.634;2022-09-09T04:34:13;7.38;;;5.30;;
61527;SDS011;47395;42.032;-8.634;2022-09-09T04:36:14;6.03;;;5.43;;
61527;SDS011;47395;42.032;-8.634;2022-09-09T04:38:16;11.95;;;5.35;;
61527;SDS011;47395;42.032;-8.634;2022-09-09T04:40:18;8.23;;;5.63;;
61527;SDS011;47395;42.032;-8.634;2022-09-09T04:42:20;6.25;;;4.88;;
61527;SDS011;47395;42.032;-8.634;2022-09-09T04:44:21;5.35;;;5.05;;
61527;SDS011;47395;42.032;-8.634;2022-09-09T04:46:22;4.78;;;4.43;;
61527;SDS011;47395;42.032;-8.634;2022-09-09T04:48:24;5.10;;;4.65;;
61527;SDS011;47395;42.032;-8.634;2022-09-09T04:50:25;5.45;;;4.75;;
61527;SDS011;47395;42.032;-8.634;2022-09-09T04:52:33;5.22;;;4.72;;
61527;SDS011;47395;42.032;-8.634;2022-09-09T04:54:35;6.80;;;4.60;;
61527;SDS011;47395;42.032;-8.634;2022-09-09T04:56:36;4.75;;;4.40;;
61527;SDS011;47395;42.032;-8.634;2022-09-09T04:58:37;4.63;;;4.30;;
61527;SDS011;47395;42.032;-8.634;2022-09-09T05:00:40;4.95;;;4.47;;
61527;SDS011;47395;42.032;-8.634;2022-09-09T05:02:42;5.95;;;4.60;;
61527;SDS011;47395;42.032;-8.634;2022-09-09T05:04:43;4.93;;;4.57;;
61527;SDS011;47395;42.032;-8.634;2022-09-09T05:06:44;5.15;;;4.60;;
61527;SDS011;47395;42.032;-8.634;2022-09-09T05:08:47;5.43;;;4.60;;
61527;SDS011;47395;42.032;-8.634;2022-09-09T05:10:52;5.82;;;5.03;;
61527;SDS011;47395;42.032;-8.634;2022-09-09T05:12:53;5.70;;;4.60;;
61527;SDS011;47395;42.032;-8.634;2022-09-09T05:14:56;5.75;;;5.30;;
61527;SDS011;47395;42.032;-8.634;2022-09-09T05:16:57;4.95;;;4.65;;
61527;SDS011;47395;42.032;-8.634;2022-09-09T05:18:58;5.63;;;4.78;;
61527;SDS011;47395;42.032;-8.634;2022-09-09T05:21:03;5.50;;;4.68;;
61527;SDS011;47395;42.032;-8.634;2022-09-09T05:23:05;5.18;;;4.75;;
61527;SDS011;47395;42.032;-8.634;2022-09-09T05:25:07;5.10;;;4.28;;
61527;SDS011;47395;42.032;-8.634;2022-09-09T05:27:08;8.80;;;4.40;;
61527;SDS011;47395;42.032;-8.634;2022-09-09T05:29:13;4.57;;;3.83;;
61527;SDS011;47395;42.032;-8.634;2022-09-09T05:31:14;7.95;;;4.25;;
61527;SDS011;47395;42.032;-8.634;2022-09-09T05:33:18;4.65;;;4.40;;
61527;SDS011;47395;42.032;-8.634;2022-09-09T05:35:19;5.05;;;4.38;;
61527;SDS011;47395;42.032;-8.634;2022-09-09T05:37:21;8.32;;;4.68;;
61527;SDS011;47395;42.032;-8.634;2022-09-09T05:39:22;4.25;;;4.00;;
61527;SDS011;47395;42.032;-8.634;2022-09-09T05:41:23;5.43;;;4.88;;
61527;SDS011;47395;42.032;-8.634;2022-09-09T05:43:28;6.10;;;4.95;;
61527;SDS011;47395;42.032;-8.634;2022-09-09T05:45:30;7.57;;;5.38;;
61527;SDS011;47395;42.032;-8.634;2022-09-09T05:47:30;6.55;;;5.15;;
61527;SDS011;47395;42.032;-8.634;2022-09-09T05:49:32;8.10;;;5.07;;
61527;SDS011;47395;42.032;-8.634;2022-09-09T05:51:33;7.00;;;5.45;;
61527;SDS011;47395;42.032;-8.634;2022-09-09T05:53:42;7.40;;;5.22;;
61527;SDS011;47395;42.032;-8.634;2022-09-09T05:55:44;5.60;;;5.10;;
61527;SDS011;47395;42.032;-8.634;2022-09-09T05:57:48;5.63;;;4.85;;
61527;SDS011;47395;42.032;-8.634;2022-09-09T05:59:49;5.35;;;4.93;;
61527;SDS011;47395;42.032;-8.634;2022-09-09T06:01:50;5.78;;;5.10;;
61527;SDS011;47395;42.032;-8.634;2022-09-09T06:04:00;8.40;;;5.78;;
61527;SDS011;47395;42.032;-8.634;2022-09-09T06:06:03;10.00;;;5.95;;
61527;SDS011;47395;42.032;-8.634;2022-09-09T06:08:07;9.25;;;5.65;;
61527;SDS011;47395;42.032;-8.634;2022-09-09T06:10:08;6.15;;;5.53;;
61527;SDS011;47395;42.032;-8.634;2022-09-09T06:12:09;6.40;;;5.57;;
61527;SDS011;47395;42.032;-8.634;2022-09-09T06:14:10;7.35;;;5.22;;
61527;SDS011;47395;42.032;-8.634;2022-09-09T06:16:14;5.82;;;5.10;;
61527;SDS011;47395;42.032;-8.634;2022-09-09T06:18:18;8.02;;;4.88;;
61527;SDS011;47395;42.032;-8.634;2022-09-09T06:20:19;10.27;;;4.20;;
61527;SDS011;47395;42.032;-8.634;2022-09-09T06:22:20;5.15;;;4.65;;
61527;SDS011;47395;42.032;-8.634;2022-09-09T06:24:21;4.90;;;4.50;;
61527;SDS011;47395;42.032;-8.634;2022-09-09T06:26:24;5.00;;;4.45;;
61527;SDS011;47395;42.032;-8.634;2022-09-09T06:28:27;5.60;;;5.07;;
61527;SDS011;47395;42.032;-8.634;2022-09-09T06:30:28;7.78;;;4.63;;
61527;SDS011;47395;42.032;-8.634;2022-09-09T06:32:30;7.72;;;4.68;;
61527;SDS011;47395;42.032;-8.634;2022-09-09T06:34:34;7.78;;;4.78;;
61527;SDS011;47395;42.032;-8.634;2022-09-09T06:36:37;6.75;;;4.93;;
61527;SDS011;47395;42.032;-8.634;2022-09-09T06:38:39;7.28;;;4.53;;
61527;SDS011;47395;42.032;-8.634;2022-09-09T06:40:40;5.00;;;4.53;;
61527;SDS011;47395;42.032;-8.634;2022-09-09T06:42:42;6.30;;;5.03;;
61527;SDS011;47395;42.032;-8.634;2022-09-09T06:44:57;7.15;;;4.60;;
61527;SDS011;47395;42.032;-8.634;2022-09-09T06:47:18;8.95;;;5.53;;
61527;SDS011;47395;42.032;-8.634;2022-09-09T06:49:20;8.90;;;5.88;;
61527;SDS011;47395;42.032;-8.634;2022-09-09T06:51:21;10.88;;;5.55;;
61527;SDS011;47395;42.032;-8.634;2022-09-09T06:53:23;10.45;;;5.60;;
61527;SDS011;47395;42.032;-8.634;2022-09-09T06:55:25;12.57;;;6.30;;
61527;SDS011;47395;42.032;-8.634;2022-09-09T06:57:26;11.98;;;6.38;;
61527;SDS011;47395;42.032;-8.634;2022-09-09T06:59:26;10.20;;;6.40;;
61527;SDS011;47395;42.032;-8.634;2022-09-09T07:01:30;13.65;;;6.75;;
61527;SDS011;47395;42.032;-8.634;2022-09-09T07:03:39;10.18;;;6.40;;
61527;SDS011;47395;42.032;-8.634;2022-09-09T07:05:40;8.75;;;6.53;;
61527;SDS011;47395;42.032;-8.634;2022-09-09T07:07:41;14.05;;;7.50;;
61527;SDS011;47395;42.032;-8.634;2022-09-09T07:09:44;9.20;;;6.95;;
61527;SDS011;47395;42.032;-8.634;2022-09-09T07:11:49;15.10;;;6.68;;
61527;SDS011;47395;42.032;-8.634;2022-09-09T07:13:54;16.10;;;8.02;;
61527;SDS011;47395;42.032;-8.634;2022-09-09T07:15:55;17.42;;;8.60;;
61527;SDS011;47395;42.032;-8.634;2022-09-09T07:18:07;19.92;;;8.52;;
61527;SDS011;47395;42.032;-8.634;2022-09-09T07:20:10;10.93;;;7.55;;
61527;SDS011;47395;42.032;-8.634;2022-09-09T07:22:13;17.33;;;8.18;;
61527;SDS011;47395;42.032;-8.634;2022-09-09T07:24:14;11.85;;;7.82;;
61527;SDS011;47395;42.032;-8.634;2022-09-09T07:26:17;16.77;;;9.20;;
61527;SDS011;47395;42.032;-8.634;2022-09-09T07:28:20;12.25;;;7.93;;
61527;SDS011;47395;42.032;-8.634;2022-09-09T07:30:21;14.27;;;7.13;;
61527;SDS011;47395;42.032;-8.634;2022-09-09T07:32:22;14.90;;;7.28;;
61527;SDS011;47395;42.032;-8.634;2022-09-09T07:34:23;14.55;;;7.28;;
61527;SDS011;47395;42.032;-8.634;2022-09-09T07:36:26;12.18;;;8.02;;
61527;SDS011;47395;42.032;-8.634;2022-09-09T07:38:31;15.48;;;7.25;;
61527;SDS011;47395;42.032;-8.634;2022-09-09T07:40:33;15.27;;;9.13;;
61527;SDS011;47395;42.032;-8.634;2022-09-09T07:42:37;17.70;;;8.27;;
61527;SDS011;47395;42.032;-8.634;2022-09-09T07:44:38;20.13;;;7.80;;
61527;SDS011;47395;42.032;-8.634;2022-09-09T07:46:48;14.65;;;7.80;;
61527;SDS011;47395;42.032;-8.634;2022-09-09T07:48:54;11.18;;;6.63;;
61527;SDS011;47395;42.032;-8.634;2022-09-09T07:51:08;8.85;;;6.82;;
61527;SDS011;47395;42.032;-8.634;2022-09-09T07:53:20;10.07;;;5.93;;
61527;SDS011;47395;42.032;-8.634;2022-09-09T07:55:23;11.88;;;5.90;;
61527;SDS011;47395;42.032;-8.634;2022-09-09T07:57:28;7.30;;;6.45;;
61527;SDS011;47395;42.032;-8.634;2022-09-09T07:59:31;6.32;;;5.53;;
61527;SDS011;47395;42.032;-8.634;2022-09-09T08:01:41;10.38;;;6.22;;
61527;SDS011;47395;42.032;-8.634;2022-09-09T08:03:46;6.72;;;6.03;;
61527;SDS011;47395;42.032;-8.634;2022-09-09T08:05:48;13.00;;;5.32;;
61527;SDS011;47395;42.032;-8.634;2022-09-09T08:07:48;9.73;;;5.80;;
61527;SDS011;47395;42.032;-8.634;2022-09-09T08:09:50;8.68;;;5.28;;
61527;SDS011;47395;42.032;-8.634;2022-09-09T08:12:02;5.50;;;5.10;;
61527;SDS011;47395;42.032;-8.634;2022-09-09T08:14:04;5.28;;;4.78;;
61527;SDS011;47395;42.032;-8.634;2022-09-09T08:18:14;5.90;;;5.50;;
61527;SDS011;47395;42.032;-8.634;2022-09-09T08:20:15;7.22;;;5.57;;
61527;SDS011;47395;42.032;-8.634;2022-09-09T08:22:17;7.47;;;4.82;;
61527;SDS011;47395;42.032;-8.634;2022-09-09T08:24:18;8.43;;;5.05;;
61527;SDS011;47395;42.032;-8.634;2022-09-09T08:26:33;9.40;;;5.40;;
61527;SDS011;47395;42.032;-8.634;2022-09-09T08:28:37;5.47;;;4.95;;
61527;SDS011;47395;42.032;-8.634;2022-09-09T08:30:38;5.63;;;5.00;;
61527;SDS011;47395;42.032;-8.634;2022-09-09T08:32:39;7.28;;;5.55;;
61527;SDS011;47395;42.032;-8.634;2022-09-09T08:34:41;5.85;;;5.35;;
61527;SDS011;47395;42.032;-8.634;2022-09-09T08:36:49;6.90;;;5.57;;
61527;SDS011;47395;42.032;-8.634;2022-09-09T08:38:52;5.97;;;5.47;;
61527;SDS011;47395;42.032;-8.634;2022-09-09T08:40:57;9.50;;;5.55;;
61527;SDS011;47395;42.032;-8.634;2022-09-09T08:43:07;8.05;;;5.43;;
61527;SDS011;47395;42.032;-8.634;2022-09-09T08:45:14;7.18;;;5.93;;
61527;SDS011;47395;42.032;-8.634;2022-09-09T08:47:38;9.98;;;5.45;;
61527;SDS011;47395;42.032;-8.634;2022-09-09T08:53:11;5.22;;;4.70;;
61527;SDS011;47395;42.032;-8.634;2022-09-09T08:55:39;6.22;;;5.20;;
61527;SDS011;47395;42.032;-8.634;2022-09-09T08:57:58;5.28;;;4.78;;
61527;SDS011;47395;42.032;-8.634;2022-09-09T09:00:09;5.38;;;5.03;;
61527;SDS011;47395;42.032;-8.634;2022-09-09T09:02:15;5.05;;;4.55;;
61527;SDS011;47395;42.032;-8.634;2022-09-09T09:04:45;5.50;;;4.60;;
61527;SDS011;47395;42.032;-8.634;2022-09-09T09:07:09;6.55;;;4.85;;
61527;SDS011;47395;42.032;-8.634;2022-09-09T09:09:52;5.00;;;4.45;;
61527;SDS011;47395;42.032;-8.634;2022-09-09T09:14:10;7.40;;;4.18;;
61527;SDS011;47395;42.032;-8.634;2022-09-09T09:18:49;9.20;;;3.47;;
61527;SDS011;47395;42.032;-8.634;2022-09-09T09:21:00;7.60;;;3.30;;
61527;SDS011;47395;42.032;-8.634;2022-09-09T09:23:09;3.15;;;2.90;;
61527;SDS011;47395;42.032;-8.634;2022-09-09T09:25:22;4.30;;;3.20;;
61527;SDS011;47395;42.032;-8.634;2022-09-09T09:27:33;7.35;;;3.00;;
61527;SDS011;47395;42.032;-8.634;2022-09-09T09:29:51;5.78;;;3.50;;
61527;SDS011;47395;42.032;-8.634;2022-09-09T09:31:58;3.28;;;3.10;;
61527;SDS011;47395;42.032;-8.634;2022-09-09T09:34:02;3.58;;;3.28;;
61527;SDS011;47395;42.032;-8.634;2022-09-09T09:36:04;5.32;;;2.80;;
61527;SDS011;47395;42.032;-8.634;2022-09-09T09:38:18;3.00;;;2.60;;
61527;SDS011;47395;42.032;-8.634;2022-09-09T09:40:24;3.10;;;2.50;;
61527;SDS011;47395;42.032;-8.634;2022-09-09T09:42:25;6.78;;;2.42;;
61527;SDS011;47395;42.032;-8.634;2022-09-09T09:44:31;3.35;;;2.47;;
61527;SDS011;47395;42.032;-8.634;2022-09-09T09:46:41;3.40;;;2.50;;
61527;SDS011;47395;42.032;-8.634;2022-09-09T09:48:55;6.05;;;2.70;;
61527;SDS011;47395;42.032;-8.634;2022-09-09T09:51:08;3.08;;;2.30;;
61527;SDS011;47395;42.032;-8.634;2022-09-09T09:53:19;2.25;;;2.05;;
61527;SDS011;47395;42.032;-8.634;2022-09-09T09:55:24;4.93;;;2.13;;
61527;SDS011;47395;42.032;-8.634;2022-09-09T09:57:27;8.82;;;2.60;;
61527;SDS011;47395;42.032;-8.634;2022-09-09T09:59:34;4.30;;;2.55;;
61527;SDS011;47395;42.032;-8.634;2022-09-09T10:01:37;2.75;;;2.58;;
61527;SDS011;47395;42.032;-8.634;2022-09-09T10:03:50;2.13;;;2.03;;
61527;SDS011;47395;42.032;-8.634;2022-09-09T10:05:55;2.92;;;2.25;;
61527;SDS011;47395;42.032;-8.634;2022-09-09T10:08:09;2.63;;;2.22;;
61527;SDS011;47395;42.032;-8.634;2022-09-09T10:10:13;6.25;;;2.10;;
61527;SDS011;47395;42.032;-8.634;2022-09-09T10:15:48;4.30;;;2.30;;
61527;SDS011;47395;42.032;-8.634;2022-09-09T10:20:20;2.30;;;2.10;;
61527;SDS011;47395;42.032;-8.634;2022-09-09T10:23:03;5.97;;;2.00;;
61527;SDS011;47395;42.032;-8.634;2022-09-09T10:25:24;2.13;;;1.70;;
61527;SDS011;47395;42.032;-8.634;2022-09-09T10:27:44;2.53;;;1.88;;
61527;SDS011;47395;42.032;-8.634;2022-09-09T10:32:57;5.65;;;2.05;;
61527;SDS011;47395;42.032;-8.634;2022-09-09T10:35:35;3.15;;;2.08;;
61527;SDS011;47395;42.032;-8.634;2022-09-09T10:40:37;2.15;;;1.75;;
61527;SDS011;47395;42.032;-8.634;2022-09-09T10:42:44;2.25;;;1.83;;
61527;SDS011;47395;42.032;-8.634;2022-09-09T10:44:49;1.90;;;1.80;;
61527;SDS011;47395;42.032;-8.634;2022-09-09T10:47:29;3.15;;;1.60;;
61527;SDS011;47395;42.032;-8.634;2022-09-09T10:52:44;4.63;;;2.00;;
61527;SDS011;47395;42.032;-8.634;2022-09-09T10:55:09;3.78;;;1.70;;
61527;SDS011;47395;42.032;-8.634;2022-09-09T10:57:29;1.70;;;1.60;;
61527;SDS011;47395;42.032;-8.634;2022-09-09T10:59:38;3.38;;;1.60;;
61527;SDS011;47395;42.032;-8.634;2022-09-09T11:01:52;3.50;;;1.80;;
61527;SDS011;47395;42.032;-8.634;2022-09-09T11:04:05;3.33;;;1.70;;
61527;SDS011;47395;42.032;-8.634;2022-09-09T11:06:17;1.60;;;1.50;;
61527;SDS011;47395;42.032;-8.634;2022-09-09T11:08:25;1.13;;;1.13;;
61527;SDS011;47395;42.032;-8.634;2022-09-09T11:12:40;2.58;;;1.38;;
61527;SDS011;47395;42.032;-8.634;2022-09-09T11:14:57;2.67;;;1.65;;
61527;SDS011;47395;42.032;-8.634;2022-09-09T11:19:18;2.60;;;1.15;;
61527;SDS011;47395;42.032;-8.634;2022-09-09T11:23:49;3.15;;;1.13;;
61527;SDS011;47395;42.032;-8.634;2022-09-09T11:25:55;1.13;;;0.95;;
61527;SDS011;47395;42.032;-8.634;2022-09-09T11:28:20;3.42;;;1.10;;
61527;SDS011;47395;42.032;-8.634;2022-09-09T11:35:50;4.13;;;0.75;;
61527;SDS011;47395;42.032;-8.634;2022-09-09T11:40:28;1.50;;;0.80;;
61527;SDS011;47395;42.032;-8.634;2022-09-09T11:42:31;1.77;;;0.60;;
61527;SDS011;47395;42.032;-8.634;2022-09-09T11:44:32;0.50;;;0.50;;
61527;SDS011;47395;42.032;-8.634;2022-09-09T11:46:33;0.40;;;0.40;;
61527;SDS011;47395;42.032;-8.634;2022-09-09T11:48:39;0.40;;;0.40;;
61527;SDS011;47395;42.032;-8.634;2022-09-09T11:50:46;0.30;;;0.30;;
61527;SDS011;47395;42.032;-8.634;2022-09-09T11:53:18;0.40;;;0.38;;
61527;SDS011;47395;42.032;-8.634;2022-09-09T11:55:32;0.80;;;0.80;;
61527;SDS011;47395;42.032;-8.634;2022-09-09T11:57:35;0.20;;;0.20;;
61527;SDS011;47395;42.032;-8.634;2022-09-09T11:59:36;0.28;;;0.20;;
61527;SDS011;47395;42.032;-8.634;2022-09-09T12:01:43;0.25;;;0.20;;
61527;SDS011;47395;42.032;-8.634;2022-09-09T12:03:47;0.60;;;0.60;;
61527;SDS011;47395;42.032;-8.634;2022-09-09T12:05:50;3.45;;;0.40;;
61527;SDS011;47395;42.032;-8.634;2022-09-09T12:07:56;0.47;;;0.47;;
61527;SDS011;47395;42.032;-8.634;2022-09-09T12:10:41;2.05;;;0.60;;
61527;SDS011;47395;42.032;-8.634;2022-09-09T12:12:34;4.50;;;0.70;;
61527;SDS011;47395;42.032;-8.634;2022-09-09T12:17:09;1.40;;;0.90;;
61527;SDS011;47395;42.032;-8.634;2022-09-09T12:19:26;1.27;;;0.50;;
61527;SDS011;47395;42.032;-8.634;2022-09-09T12:21:34;1.88;;;0.50;;
61527;SDS011;47395;42.032;-8.634;2022-09-09T12:23:52;0.30;;;0.30;;
61527;SDS011;47395;42.032;-8.634;2022-09-09T12:26:47;0.50;;;0.50;;
61527;SDS011;47395;42.032;-8.634;2022-09-09T12:31:08;1.98;;;0.40;;
61527;SDS011;47395;42.032;-8.634;2022-09-09T12:33:18;2.65;;;0.50;;
61527;SDS011;47395;42.032;-8.634;2022-09-09T12:35:20;0.63;;;0.45;;
61527;SDS011;47395;42.032;-8.634;2022-09-09T12:37:31;1.48;;;0.32;;
61527;SDS011;47395;42.032;-8.634;2022-09-09T12:39:37;0.98;;;0.47;;
61527;SDS011;47395;42.032;-8.634;2022-09-09T12:41:50;0.45;;;0.40;;
61527;SDS011;47395;42.032;-8.634;2022-09-09T12:44:30;0.45;;;0.45;;
61527;SDS011;47395;42.032;-8.634;2022-09-09T12:46:32;0.28;;;0.28;;
61527;SDS011;47395;42.032;-8.634;2022-09-09T12:48:46;0.32;;;0.32;;
61527;SDS011;47395;42.032;-8.634;2022-09-09T12:50:48;0.88;;;0.50;;
61527;SDS011;47395;42.032;-8.634;2022-09-09T12:52:52;0.47;;;0.47;;
61527;SDS011;47395;42.032;-8.634;2022-09-09T12:54:55;0.90;;;0.40;;
61527;SDS011;47395;42.032;-8.634;2022-09-09T12:56:59;0.30;;;0.30;;
61527;SDS011;47395;42.032;-8.634;2022-09-09T12:59:00;0.32;;;0.32;;
61527;SDS011;47395;42.032;-8.634;2022-09-09T13:01:02;1.15;;;0.30;;
61527;SDS011;47395;42.032;-8.634;2022-09-09T13:03:16;0.47;;;0.30;;
61527;SDS011;47395;42.032;-8.634;2022-09-09T13:05:25;0.20;;;0.20;;
61527;SDS011;47395;42.032;-8.634;2022-09-09T13:07:46;0.30;;;0.22;;
61527;SDS011;47395;42.032;-8.634;2022-09-09T13:09:48;1.65;;;0.20;;
61527;SDS011;47395;42.032;-8.634;2022-09-09T13:11:50;0.20;;;0.20;;
61527;SDS011;47395;42.032;-8.634;2022-09-09T13:13:56;0.55;;;0.20;;
61527;SDS011;47395;42.032;-8.634;2022-09-09T13:16:00;6.72;;;0.30;;
61527;SDS011;47395;42.032;-8.634;2022-09-09T13:18:04;0.43;;;0.30;;
61527;SDS011;47395;42.032;-8.634;2022-09-09T13:20:16;0.47;;;0.47;;
61527;SDS011;47395;42.032;-8.634;2022-09-09T13:22:31;0.45;;;0.45;;
61527;SDS011;47395;42.032;-8.634;2022-09-09T13:24:35;0.50;;;0.50;;
61527;SDS011;47395;42.032;-8.634;2022-09-09T13:26:36;0.40;;;0.40;;
61527;SDS011;47395;42.032;-8.634;2022-09-09T13:28:38;0.52;;;0.52;;
61527;SDS011;47395;42.032;-8.634;2022-09-09T13:30:39;0.50;;;0.50;;
61527;SDS011;47395;42.032;-8.634;2022-09-09T13:32:43;0.52;;;0.40;;
61527;SDS011;47395;42.032;-8.634;2022-09-09T13:34:53;0.40;;;0.40;;
61527;SDS011;47395;42.032;-8.634;2022-09-09T13:37:02;0.40;;;0.40;;
61527;SDS011;47395;42.032;-8.634;2022-09-09T13:39:15;0.40;;;0.40;;
61527;SDS011;47395;42.032;-8.634;2022-09-09T13:41:21;1.65;;;0.35;;
61527;SDS011;47395;42.032;-8.634;2022-09-09T13:43:24;0.50;;;0.50;;
61527;SDS011;47395;42.032;-8.634;2022-09-09T13:45:26;0.40;;;0.40;;
61527;SDS011;47395;42.032;-8.634;2022-09-09T13:47:37;0.63;;;0.50;;